Time;durP1;ratioP1;P1;durP2;ratioP2;P2;SDS_P1;SDS_P2;PMS_P1;PMS_P2;Temp;Humidity;BMP_temperature;BMP_pressure;BME280_temperature;BME280_humidity;BME280_pressure;Samples;Min_cycle;Max_cycle;Signal;HPM_P1;HPM_P2
2022/03/10 00:00:10;;;;;;;2.55;1.70;;;13.60;63.40;;;;;;5086484;28;20500;-73
2022/03/10 00:02:42;;;;;;;2.73;2.07;;;13.70;63.60;;;;;;5087321;28;20039;-73
2022/03/10 00:05:16;;;;;;;4.95;1.90;;;13.60;63.50;;;;;;5068547;28;20253;-74
2022/03/10 00:07:43;;;;;;;2.78;1.60;;;13.60;63.50;;;;;;5087284;28;20032;-74
2022/03/10 00:10:09;;;;;;;2.58;1.58;;;13.60;63.50;;;;;;5086535;28;20021;-74
2022/03/10 00:12:36;;;;;;;5.65;1.50;;;13.60;63.50;;;;;;5086975;28;20028;-74
2022/03/10 00:15:06;;;;;;;3.25;1.70;;;13.60;63.50;;;;;;5086802;28;20039;-73
2022/03/10 00:17:32;;;;;;;6.03;1.83;;;13.60;63.50;;;;;;5086678;28;20112;-73
2022/03/10 00:19:58;;;;;;;3.55;2.00;;;13.60;63.50;;;;;;5068592;28;20479;-73
2022/03/10 00:22:24;;;;;;;4.25;1.48;;;13.70;63.60;;;;;;5086936;28;20036;-73
2022/03/10 00:24:50;;;;;;;2.67;1.63;;;13.60;63.50;;;;;;5068644;28;20024;-73
2022/03/10 00:27:16;;;;;;;2.20;1.65;;;13.60;63.50;;;;;;5086450;28;20174;-74
2022/03/10 00:29:42;;;;;;;2.17;1.48;;;13.60;63.50;;;;;;5048088;28;20096;-74
2022/03/10 00:32:09;;;;;;;4.70;2.75;;;13.60;63.50;;;;;;5066385;28;20487;-72
2022/03/10 00:34:35;;;;;;;2.17;1.83;;;13.60;63.50;;;;;;5066625;28;20033;-72
2022/03/10 00:37:02;;;;;;;3.03;1.75;;;13.60;63.50;;;;;;5048463;28;20511;-72
2022/03/10 00:39:28;;;;;;;3.13;2.05;;;13.70;63.70;;;;;;5078401;28;20043;-74
2022/03/10 00:41:53;;;;;;;3.53;2.00;;;13.60;63.50;;;;;;5086517;28;20364;-72
2022/03/10 00:44:19;;;;;;;2.72;1.95;;;13.60;63.50;;;;;;5085722;28;20024;-72
2022/03/10 00:46:45;;;;;;;2.90;1.75;;;13.60;63.50;;;;;;5070040;28;20036;-74
2022/03/10 00:49:11;;;;;;;2.90;1.60;;;13.60;63.50;;;;;;5071536;28;20024;-72
2022/03/10 00:51:37;;;;;;;2.67;1.60;;;13.60;63.50;;;;;;5072248;28;20421;-71
2022/03/10 00:54:03;;;;;;;4.88;2.13;;;13.60;63.50;;;;;;5090404;28;20032;-71
2022/03/10 00:56:29;;;;;;;2.80;2.00;;;13.50;63.30;;;;;;5090188;28;20364;-72
2022/03/10 00:58:55;;;;;;;5.47;2.28;;;13.60;63.70;;;;;;5090240;28;20040;-71
2022/03/10 01:01:21;;;;;;;2.13;1.80;;;13.60;63.60;;;;;;5072892;28;20028;-71
2022/03/10 01:03:47;;;;;;;4.03;1.85;;;13.50;63.40;;;;;;5090802;28;20551;-71
2022/03/10 01:06:13;;;;;;;2.10;1.80;;;13.50;63.40;;;;;;5090464;28;20414;-71
2022/03/10 01:08:38;;;;;;;1.80;1.50;;;13.50;64.00;;;;;;5090911;28;20062;-74
2022/03/10 01:11:04;;;;;;;2.67;1.77;;;13.50;63.50;;;;;;5090083;28;20433;-72
2022/03/10 01:13:30;;;;;;;3.03;1.38;;;13.50;63.50;;;;;;5072016;28;20028;-71
2022/03/10 01:15:56;;;;;;;2.38;1.48;;;13.50;63.60;;;;;;5089622;28;20758;-71
2022/03/10 01:18:22;;;;;;;2.30;1.80;;;13.50;63.60;;;;;;5089563;28;20051;-71
2022/03/10 01:20:48;;;;;;;2.05;1.65;;;13.50;63.60;;;;;;5089759;28;20035;-71
2022/03/10 01:23:14;;;;;;;3.22;1.77;;;13.50;63.60;;;;;;5088940;28;20131;-71
2022/03/10 01:25:40;;;;;;;2.72;1.50;;;13.50;63.60;;;;;;5089791;28;20024;-71
2022/03/10 01:28:06;;;;;;;2.03;1.65;;;13.50;63.60;;;;;;5089614;28;20030;-73
2022/03/10 01:30:32;;;;;;;4.57;2.10;;;13.50;63.60;;;;;;5089240;28;20032;-71
2022/03/10 01:32:59;;;;;;;2.78;1.90;;;13.50;63.60;;;;;;5089986;28;20074;-71
2022/03/10 01:35:26;;;;;;;2.83;1.45;;;13.50;63.60;;;;;;5089415;28;20485;-71
2022/03/10 01:37:52;;;;;;;1.67;1.52;;;13.50;63.70;;;;;;5071727;28;20379;-71
2022/03/10 01:40:18;;;;;;;4.18;1.55;;;13.50;63.70;;;;;;5071374;28;20020;-72
2022/03/10 01:42:45;;;;;;;3.13;1.40;;;13.40;63.50;;;;;;5090794;28;20028;-72
2022/03/10 01:45:12;;;;;;;3.90;1.42;;;13.50;63.70;;;;;;5091291;28;20063;-72
2022/03/10 01:47:39;;;;;;;4.00;1.45;;;13.40;63.60;;;;;;5091282;28;20341;-72
2022/03/10 01:50:10;;;;;;;2.35;1.38;;;13.40;63.60;;;;;;5090751;28;20055;-71
2022/03/10 01:52:38;;;;;;;2.50;1.70;;;13.40;63.60;;;;;;5090524;28;20106;-71
2022/03/10 01:55:05;;;;;;;2.47;1.88;;;13.40;63.60;;;;;;5089851;28;20072;-71
2022/03/10 01:57:31;;;;;;;2.47;1.45;;;13.40;63.60;;;;;;5070065;28;20391;-74
2022/03/10 01:59:57;;;;;;;2.92;1.83;;;13.40;63.60;;;;;;5089319;28;20031;-71
2022/03/10 02:02:23;;;;;;;2.72;1.33;;;13.40;63.70;;;;;;5089135;28;20449;-74
2022/03/10 02:04:49;;;;;;;3.65;1.60;;;13.30;63.50;;;;;;5089005;28;20028;-72
2022/03/10 02:10:18;;;;;;;2.72;1.67;;;13.40;63.70;;;;;;5088520;28;20024;-74
2022/03/10 02:12:53;;;;;;;3.92;1.50;;;13.30;63.50;;;;;;5073634;28;20032;-73
2022/03/10 02:18:10;;;;;;;3.58;1.23;;;13.30;63.50;;;;;;5088423;28;20479;-71
2022/03/10 02:20:37;;;;;;;4.80;1.63;;;13.40;63.70;;;;;;5088533;28;20082;-72
2022/03/10 02:23:05;;;;;;;3.78;1.98;;;13.30;63.50;;;;;;5088505;28;20042;-72
2022/03/10 02:25:33;;;;;;;1.75;1.45;;;13.40;63.70;;;;;;5088487;28;20566;-72
2022/03/10 02:27:59;;;;;;;3.50;1.48;;;13.40;63.70;;;;;;5088878;28;20498;-72
2022/03/10 02:30:28;;;;;;;2.88;2.38;;;13.40;63.70;;;;;;5087740;28;20032;-72
2022/03/10 02:32:54;;;;;;;2.55;1.48;;;13.30;63.50;;;;;;5070461;28;20063;-72
2022/03/10 02:35:20;;;;;;;5.53;2.30;;;13.30;63.50;;;;;;5070348;28;20032;-72
2022/03/10 02:37:46;;;;;;;3.17;1.70;;;13.30;63.50;;;;;;5070144;28;20046;-72
2022/03/10 02:40:13;;;;;;;3.92;1.50;;;13.30;63.50;;;;;;5088068;28;20116;-72
2022/03/10 02:42:39;;;;;;;2.08;1.33;;;13.30;63.50;;;;;;5070136;28;20036;-72
2022/03/10 02:45:06;;;;;;;2.70;1.45;;;13.30;63.50;;;;;;5053269;28;20028;-72
2022/03/10 02:47:32;;;;;;;3.60;2.20;;;13.30;63.50;;;;;;5089942;28;20122;-72
2022/03/10 02:49:58;;;;;;;2.78;1.63;;;13.30;63.50;;;;;;5091548;28;20036;-72
2022/03/10 02:52:25;;;;;;;3.35;1.55;;;13.30;63.50;;;;;;5091389;28;20040;-72
2022/03/10 02:54:51;;;;;;;2.53;1.60;;;13.30;63.50;;;;;;5091858;28;20099;-72
2022/03/10 02:57:17;;;;;;;3.05;1.67;;;13.30;63.50;;;;;;5091504;28;20039;-72
2022/03/10 02:59:43;;;;;;;3.35;1.45;;;13.30;63.50;;;;;;5091149;28;20152;-72
2022/03/10 03:02:10;;;;;;;3.63;1.63;;;13.30;63.50;;;;;;5091240;28;20032;-72
2022/03/10 03:04:35;;;;;;;2.30;1.30;;;13.20;63.40;;;;;;5091109;28;20050;-72
2022/03/10 03:07:03;;;;;;;3.60;1.73;;;13.20;63.40;;;;;;5091376;28;20554;-72
2022/03/10 03:09:29;;;;;;;2.60;1.38;;;13.20;63.40;;;;;;5090917;28;20509;-72
2022/03/10 03:11:55;;;;;;;3.35;2.20;;;13.20;63.40;;;;;;5056075;28;20032;-72
2022/03/10 03:14:23;;;;;;;2.90;1.60;;;13.20;63.40;;;;;;5091138;28;20085;-72
2022/03/10 03:16:50;;;;;;;4.05;1.65;;;13.20;63.40;;;;;;5090919;28;20039;-72
2022/03/10 03:19:16;;;;;;;1.85;1.50;;;13.20;63.40;;;;;;5072873;28;20103;-72
2022/03/10 03:21:42;;;;;;;3.70;2.05;;;13.20;63.40;;;;;;5090969;28;20052;-72
2022/03/10 03:24:08;;;;;;;3.83;1.50;;;13.20;63.40;;;;;;5090521;28;20082;-72
2022/03/10 03:26:34;;;;;;;2.78;1.60;;;13.20;63.40;;;;;;5073082;28;20028;-72
2022/03/10 03:29:00;;;;;;;3.10;1.30;;;13.20;63.40;;;;;;5072900;28;20036;-72
2022/03/10 03:31:26;;;;;;;4.03;1.90;;;13.20;63.40;;;;;;5090418;28;20083;-72
2022/03/10 03:33:51;;;;;;;1.73;1.40;;;13.20;63.40;;;;;;5090890;28;20024;-72
2022/03/10 03:36:17;;;;;;;2.28;1.52;;;13.20;63.40;;;;;;5090410;28;20039;-72
2022/03/10 03:38:43;;;;;;;3.55;1.50;;;13.20;63.40;;;;;;5090875;28;20028;-72
2022/03/10 03:41:09;;;;;;;5.78;2.38;;;13.20;63.40;;;;;;5090523;28;20398;-72
2022/03/10 03:43:35;;;;;;;2.90;1.40;;;13.30;63.60;;;;;;5090759;28;20416;-72
2022/03/10 03:46:01;;;;;;;4.35;1.83;;;13.20;63.40;;;;;;5090378;28;20378;-73
2022/03/10 03:48:27;;;;;;;2.78;1.35;;;13.20;63.50;;;;;;5090273;28;20028;-72
2022/03/10 03:50:53;;;;;;;3.58;1.40;;;13.20;63.50;;;;;;5072612;28;20119;-72
2022/03/10 03:53:19;;;;;;;2.83;1.63;;;13.20;63.50;;;;;;5072307;28;20024;-72
2022/03/10 03:55:45;;;;;;;3.65;1.55;;;13.20;63.50;;;;;;5090590;28;20150;-72
2022/03/10 03:58:11;;;;;;;2.22;1.30;;;13.20;63.50;;;;;;5090267;28;20117;-71
2022/03/10 04:00:37;;;;;;;3.13;2.00;;;13.20;63.50;;;;;;5090587;28;20111;-72
2022/03/10 04:03:08;;;;;;;2.85;1.48;;;13.20;63.60;;;;;;5090548;28;20056;-72
2022/03/10 04:05:35;;;;;;;2.63;1.80;;;13.20;63.60;;;;;;5090531;28;20494;-72
2022/03/10 04:08:01;;;;;;;2.88;1.58;;;13.20;63.50;;;;;;5090375;28;20028;-72
2022/03/10 04:10:27;;;;;;;3.70;1.55;;;13.20;63.60;;;;;;5090097;28;20027;-72
2022/03/10 04:12:52;;;;;;;3.40;1.67;;;13.20;63.60;;;;;;5072247;28;20035;-72
2022/03/10 04:15:18;;;;;;;3.33;2.35;;;13.20;63.60;;;;;;5090189;28;20059;-72
2022/03/10 04:17:44;;;;;;;2.47;1.45;;;13.20;63.60;;;;;;5090117;28;20042;-72
2022/03/10 04:20:13;;;;;;;2.63;1.80;;;13.20;63.60;;;;;;5090612;28;20126;-72
2022/03/10 04:22:39;;;;;;;3.88;2.40;;;13.20;63.60;;;;;;5093818;28;20027;-72
2022/03/10 04:25:09;;;;;;;5.68;1.92;;;13.20;63.60;;;;;;5094808;28;20020;-72
2022/03/10 04:27:36;;;;;;;1.95;1.23;;;13.20;63.60;;;;;;5095078;28;20470;-72
2022/03/10 04:30:03;;;;;;;1.80;1.52;;;13.20;63.70;;;;;;5094742;28;20012;-72
2022/03/10 04:32:29;;;;;;;2.60;1.58;;;13.20;63.60;;;;;;5094364;28;20036;-72
2022/03/10 04:34:55;;;;;;;3.35;1.98;;;13.20;63.60;;;;;;5094049;28;20051;-72
2022/03/10 04:37:21;;;;;;;4.20;2.28;;;13.20;63.60;;;;;;5094362;28;20487;-72
2022/03/10 04:39:47;;;;;;;2.97;1.50;;;13.20;63.60;;;;;;5094041;28;20021;-72
2022/03/10 04:42:12;;;;;;;2.53;1.75;;;13.10;63.50;;;;;;5075697;28;20032;-72
2022/03/10 04:44:38;;;;;;;4.28;1.85;;;13.20;63.70;;;;;;5093667;28;20391;-72
2022/03/10 04:47:05;;;;;;;2.30;1.50;;;13.20;63.70;;;;;;5093458;28;20403;-72
2022/03/10 04:49:31;;;;;;;2.15;1.30;;;13.10;63.50;;;;;;5059019;28;20071;-73
2022/03/10 04:51:57;;;;;;;2.20;1.35;;;13.10;63.60;;;;;;5093731;28;20503;-73
2022/03/10 04:54:23;;;;;;;3.25;1.80;;;13.10;63.60;;;;;;5093678;28;20016;-72
2022/03/10 04:56:49;;;;;;;3.38;1.90;;;13.10;63.60;;;;;;5075772;28;20072;-72
2022/03/10 04:59:15;;;;;;;4.68;1.85;;;13.10;63.60;;;;;;5093655;28;20646;-73
2022/03/10 05:01:41;;;;;;;5.75;1.95;;;13.10;63.70;;;;;;5093885;28;20027;-73
2022/03/10 05:04:06;;;;;;;3.30;1.80;;;13.10;63.70;;;;;;5076875;28;20035;-72
2022/03/10 05:06:32;;;;;;;3.05;1.52;;;13.00;63.50;;;;;;5076818;28;20043;-73
2022/03/10 05:08:58;;;;;;;2.83;1.48;;;13.10;63.70;;;;;;5095149;28;20075;-72
2022/03/10 05:11:24;;;;;;;2.35;1.40;;;13.10;63.80;;;;;;5094873;28;20663;-73
2022/03/10 05:13:50;;;;;;;4.65;2.10;;;13.00;63.60;;;;;;5094697;28;20024;-73
2022/03/10 05:16:16;;;;;;;2.53;1.52;;;13.00;63.60;;;;;;5094028;28;20031;-73
2022/03/10 05:18:44;;;;;;;3.45;1.77;;;13.00;63.70;;;;;;5093899;28;20059;-73
2022/03/10 05:21:10;;;;;;;4.45;2.00;;;13.00;63.70;;;;;;5075045;28;20159;-73
2022/03/10 05:23:36;;;;;;;3.47;1.52;;;13.00;63.70;;;;;;5075524;28;20039;-72
2022/03/10 05:26:02;;;;;;;3.40;1.65;;;13.00;63.70;;;;;;5093145;28;20028;-73
2022/03/10 05:28:28;;;;;;;2.83;1.50;;;13.00;63.80;;;;;;5093297;28;20508;-72
2022/03/10 05:30:54;;;;;;;2.63;1.55;;;13.00;63.70;;;;;;5093372;28;20032;-73
2022/03/10 05:33:20;;;;;;;5.15;1.75;;;13.00;63.80;;;;;;5092805;28;20530;-72
2022/03/10 05:35:46;;;;;;;4.32;2.05;;;13.00;63.80;;;;;;5075929;28;20040;-72
2022/03/10 05:38:12;;;;;;;3.13;1.63;;;13.00;63.80;;;;;;5093201;28;20479;-73
2022/03/10 05:40:38;;;;;;;5.05;1.90;;;12.90;63.70;;;;;;5075328;28;20032;-73
2022/03/10 05:43:04;;;;;;;4.55;2.70;;;13.00;63.80;;;;;;5093293;28;20505;-72
2022/03/10 05:45:30;;;;;;;2.45;1.77;;;12.90;63.70;;;;;;5093144;28;20118;-72
2022/03/10 05:47:57;;;;;;;3.35;1.90;;;12.90;63.70;;;;;;5085586;28;20140;-72
2022/03/10 05:50:25;;;;;;;6.25;2.40;;;12.90;63.70;;;;;;5051586;28;20035;-72
2022/03/10 05:52:51;;;;;;;3.28;1.55;;;12.90;63.80;;;;;;5068911;28;20298;-73
2022/03/10 05:55:18;;;;;;;2.92;1.92;;;12.90;63.80;;;;;;5051405;28;20036;-72
2022/03/10 05:57:44;;;;;;;2.33;1.88;;;12.90;63.80;;;;;;5053772;28;20053;-72
2022/03/10 06:00:11;;;;;;;3.50;1.63;;;12.90;63.80;;;;;;5088217;28;20373;-72
2022/03/10 06:02:40;;;;;;;3.13;1.42;;;12.90;63.80;;;;;;5088653;28;20028;-72
2022/03/10 06:05:06;;;;;;;2.45;1.55;;;12.90;63.80;;;;;;5088697;28;20403;-72
2022/03/10 06:07:34;;;;;;;3.42;1.95;;;12.90;63.80;;;;;;5070538;28;20449;-72
2022/03/10 06:10:00;;;;;;;3.08;1.73;;;13.00;64.00;;;;;;5089056;28;20016;-73
2022/03/10 06:12:27;;;;;;;5.18;2.60;;;13.00;64.00;;;;;;5070932;28;20076;-73
2022/03/10 06:14:57;;;;;;;3.83;2.22;;;12.90;63.80;;;;;;5089100;28;20056;-72
2022/03/10 06:17:24;;;;;;;5.55;1.90;;;13.00;64.50;;;;;;5088275;28;20264;-72
2022/03/10 06:19:50;;;;;;;3.38;1.73;;;13.00;63.90;;;;;;5088426;28;20028;-72
2022/03/10 06:22:22;;;;;;;2.67;1.80;;;13.00;63.90;;;;;;5088254;28;20024;-73
2022/03/10 06:24:48;;;;;;;5.28;2.17;;;13.00;64.00;;;;;;5088933;28;20043;-72
2022/03/10 06:27:18;;;;;;;3.95;2.03;;;13.00;63.90;;;;;;5070728;28;20028;-72
2022/03/10 06:29:45;;;;;;;2.83;1.75;;;13.00;63.90;;;;;;5069928;28;20035;-72
2022/03/10 06:32:14;;;;;;;3.50;1.55;;;13.00;63.90;;;;;;5067141;28;20067;-73
2022/03/10 06:34:40;;;;;;;2.30;1.70;;;13.00;63.90;;;;;;5079865;28;20134;-72
2022/03/10 06:37:07;;;;;;;3.05;1.40;;;13.00;63.90;;;;;;5088791;28;20028;-72
2022/03/10 06:39:34;;;;;;;2.45;1.60;;;13.00;63.90;;;;;;5070345;28;20058;-71
2022/03/10 06:42:01;;;;;;;2.92;1.83;;;13.00;63.90;;;;;;5088456;28;20419;-72
2022/03/10 06:44:26;;;;;;;2.63;1.52;;;13.00;63.90;;;;;;5087985;28;20024;-72
2022/03/10 06:46:53;;;;;;;3.38;1.30;;;13.00;63.90;;;;;;5088540;28;20097;-74
2022/03/10 06:49:20;;;;;;;4.32;2.15;;;13.00;63.90;;;;;;5088291;28;20490;-74
2022/03/10 06:51:47;;;;;;;3.30;1.88;;;13.10;64.10;;;;;;5088708;28;20028;-76
2022/03/10 06:54:13;;;;;;;5.97;1.40;;;13.10;64.10;;;;;;5070401;28;20070;-73
2022/03/10 06:56:39;;;;;;;2.97;1.80;;;13.10;64.10;;;;;;5088476;28;20591;-73
2022/03/10 06:59:06;;;;;;;4.78;1.70;;;13.10;64.10;;;;;;5069731;28;20024;-72
2022/03/10 07:01:32;;;;;;;4.15;1.50;;;13.10;64.60;;;;;;5088546;28;20047;-76
2022/03/10 07:03:59;;;;;;;3.33;1.60;;;13.10;64.00;;;;;;5069713;28;20403;-78
2022/03/10 07:06:26;;;;;;;3.85;1.40;;;13.10;64.00;;;;;;5070065;28;20024;-76
2022/03/10 07:08:52;;;;;;;1.98;1.48;;;13.10;64.00;;;;;;5087838;28;20097;-76
2022/03/10 07:11:18;;;;;;;2.83;1.10;;;13.10;64.10;;;;;;5088598;28;20103;-74
2022/03/10 07:13:46;;;;;;;5.22;2.67;;;13.10;64.10;;;;;;5083316;28;20705;-74
2022/03/10 07:16:13;;;;;;;3.22;1.80;;;13.10;64.10;;;;;;5075460;28;20372;-73
2022/03/10 07:18:39;;;;;;;3.35;1.25;;;13.10;64.00;;;;;;5087463;28;20044;-74
2022/03/10 07:21:05;;;;;;;2.28;1.30;;;13.10;64.00;;;;;;5087943;28;20401;-77
2022/03/10 07:23:32;;;;;;;5.82;1.75;;;13.10;64.00;;;;;;5087685;28;20112;-75
2022/03/10 07:25:59;;;;;;;2.95;1.27;;;13.10;64.00;;;;;;5049616;28;20127;-76
2022/03/10 07:28:25;;;;;;;2.90;1.42;;;13.10;64.00;;;;;;5068749;28;20177;-75
2022/03/10 07:30:51;;;;;;;3.75;1.75;;;13.10;64.00;;;;;;5074912;28;20028;-77
2022/03/10 07:33:18;;;;;;;3.90;1.40;;;13.20;64.20;;;;;;5049251;28;20036;-76
2022/03/10 07:35:44;;;;;;;3.20;1.25;;;13.20;64.20;;;;;;5067279;28;20078;-74
2022/03/10 07:38:11;;;;;;;2.25;1.23;;;13.20;64.40;;;;;;5072629;28;20051;-75
2022/03/10 07:40:37;;;;;;;4.07;1.10;;;13.30;64.80;;;;;;5069265;28;20028;-77
2022/03/10 07:43:05;;;;;;;5.90;1.40;;;13.40;65.10;;;;;;5087519;28;20395;-75
2022/03/10 07:45:32;;;;;;;4.40;1.50;;;13.40;65.20;;;;;;5069565;28;20038;-76
2022/03/10 07:47:58;;;;;;;4.28;1.05;;;13.60;65.50;;;;;;5069216;28;20203;-75
2022/03/10 07:50:24;;;;;;;3.13;1.05;;;13.60;65.50;;;;;;5088216;28;20028;-74
2022/03/10 07:52:50;;;;;;;3.75;1.17;;;13.70;65.60;;;;;;5088004;28;20197;-74
2022/03/10 07:55:16;;;;;;;3.00;1.10;;;13.80;65.80;;;;;;5087703;28;20436;-85
2022/03/10 07:57:42;;;;;;;2.58;1.00;;;13.80;65.70;;;;;;5063456;28;20414;-76
2022/03/10 08:00:09;;;;;;;2.63;0.90;;;13.90;65.80;;;;;;5085329;28;20036;-75
2022/03/10 08:02:36;;;;;;;3.88;1.00;;;14.00;65.90;;;;;;5087131;28;20502;-75
2022/03/10 08:05:03;;;;;;;3.50;1.08;;;14.10;66.10;;;;;;5086959;28;20044;-76
2022/03/10 08:07:32;;;;;;;3.25;0.90;;;14.10;66.00;;;;;;5087040;28;20078;-74
2022/03/10 08:10:03;;;;;;;4.43;1.05;;;14.20;66.10;;;;;;5087108;28;20410;-89
2022/03/10 08:12:33;;;;;;;5.30;1.50;;;14.30;66.20;;;;;;5087558;28;20027;-83
2022/03/10 08:15:00;;;;;;;3.38;1.02;;;14.40;66.20;;;;;;5069475;28;20028;-81
2022/03/10 08:17:26;;;;;;;2.38;0.75;;;14.40;66.10;;;;;;5087003;28;20093;-81
2022/03/10 08:19:53;;;;;;;2.45;0.73;;;14.50;66.20;;;;;;5087571;28;20028;-82
2022/03/10 08:22:20;;;;;;;3.70;0.88;;;14.50;66.10;;;;;;5086887;28;20386;-80
2022/03/10 08:24:46;;;;;;;2.10;0.85;;;14.60;66.20;;;;;;5052018;28;20450;-78
2022/03/10 08:27:14;;;;;;;4.13;1.42;;;14.70;66.20;;;;;;5087568;28;20051;-81
2022/03/10 08:29:40;;;;;;;2.03;0.60;;;14.70;66.10;;;;;;5088783;28;20524;-79
2022/03/10 08:32:07;;;;;;;3.70;0.95;;;14.80;66.20;;;;;;5070638;28;20115;-80
2022/03/10 08:34:33;;;;;;;4.47;1.60;;;14.90;66.20;;;;;;5089881;28;20020;-75
2022/03/10 08:36:59;;;;;;;2.47;0.70;;;14.90;66.10;;;;;;5089230;28;20387;-76
2022/03/10 08:39:25;;;;;;;5.72;0.80;;;14.90;66.00;;;;;;5089015;28;20487;-81
2022/03/10 08:41:51;;;;;;;3.03;0.70;;;15.00;66.10;;;;;;5070786;28;20028;-80
2022/03/10 08:44:19;;;;;;;2.70;0.70;;;15.00;66.00;;;;;;5071025;28;20336;-79
2022/03/10 08:46:45;;;;;;;5.22;1.45;;;15.10;66.10;;;;;;5053349;28;20162;-76
2022/03/10 08:49:11;;;;;;;3.55;0.77;;;15.10;66.00;;;;;;5087696;28;20530;-80
2022/03/10 08:51:37;;;;;;;4.90;0.73;;;15.20;66.20;;;;;;5087453;28;20059;-77
2022/03/10 08:54:03;;;;;;;2.20;0.77;;;15.20;66.00;;;;;;5068706;28;20362;-76
2022/03/10 08:56:29;;;;;;;5.35;1.55;;;15.30;65.90;;;;;;5068863;28;20059;-76
2022/03/10 08:58:56;;;;;;;5.50;1.67;;;15.40;65.90;;;;;;5086386;28;20068;-75
2022/03/10 09:01:22;;;;;;;3.92;1.10;;;15.50;65.80;;;;;;5076692;28;20081;-75
2022/03/10 09:03:48;;;;;;;3.53;1.13;;;15.50;65.60;;;;;;5077568;28;20032;-75
2022/03/10 09:06:14;;;;;;;4.43;1.08;;;15.60;65.60;;;;;;5085433;28;20141;-75
2022/03/10 09:08:42;;;;;;;3.88;0.70;;;15.70;65.60;;;;;;5089276;28;20024;-75
2022/03/10 09:11:08;;;;;;;5.10;1.10;;;15.70;65.40;;;;;;5072045;28;20308;-75
2022/03/10 09:13:34;;;;;;;4.13;0.70;;;15.80;65.30;;;;;;5090445;28;20024;-78
2022/03/10 09:16:00;;;;;;;2.70;0.98;;;15.90;65.20;;;;;;5071927;28;20036;-80
2022/03/10 09:18:25;;;;;;;1.48;0.50;;;16.00;65.20;;;;;;5089394;28;20418;-77
2022/03/10 09:20:51;;;;;;;2.75;0.80;;;16.10;65.10;;;;;;5089279;28;20028;-76
2022/03/10 09:23:18;;;;;;;1.23;0.63;;;16.10;64.90;;;;;;5089190;28;20028;-77
2022/03/10 09:25:43;;;;;;;3.05;0.70;;;16.20;64.90;;;;;;5071475;28;20063;-77
2022/03/10 09:28:10;;;;;;;3.28;0.60;;;16.20;64.80;;;;;;5096258;28;20066;-76
2022/03/10 09:30:36;;;;;;;2.72;1.08;;;16.20;64.80;;;;;;5092204;28;20031;-77
2022/03/10 09:33:02;;;;;;;1.88;0.82;;;16.20;64.70;;;;;;5110253;28;20027;-77
2022/03/10 09:35:28;;;;;;;5.07;0.43;;;16.30;64.70;;;;;;5110875;28;20051;-77
2022/03/10 09:37:54;;;;;;;2.38;0.75;;;16.30;64.50;;;;;;5091210;28;20165;-77
2022/03/10 09:40:20;;;;;;;1.55;0.57;;;16.40;64.50;;;;;;5075092;28;20107;-77
2022/03/10 09:42:48;;;;;;;3.35;0.68;;;16.40;64.30;;;;;;5109602;28;20035;-77
2022/03/10 09:45:15;;;;;;;4.35;1.10;;;16.50;64.40;;;;;;5077522;28;20032;-76
2022/03/10 09:47:44;;;;;;;1.75;0.50;;;16.50;64.30;;;;;;5074227;28;20478;-77
2022/03/10 09:50:15;;;;;;;1.63;0.50;;;16.60;64.30;;;;;;5091552;28;20063;-77
2022/03/10 09:52:43;;;;;;;2.65;0.55;;;16.70;64.30;;;;;;5109573;28;20028;-77
2022/03/10 09:55:10;;;;;;;2.85;0.60;;;16.80;64.30;;;;;;5074628;28;20035;-79
2022/03/10 09:57:38;;;;;;;2.80;0.75;;;16.80;64.10;;;;;;5089682;28;20044;-78
2022/03/10 10:00:06;;;;;;;1.70;0.52;;;16.80;63.90;;;;;;5089576;28;20066;-79
2022/03/10 10:02:32;;;;;;;0.57;0.40;;;16.90;64.00;;;;;;5071468;28;20074;-84
2022/03/10 10:04:58;;;;;;;2.95;0.80;;;16.90;64.00;;;;;;5071345;28;20378;-79
2022/03/10 10:07:27;;;;;;;1.20;0.40;;;16.90;64.00;;;;;;5086009;28;20473;-78
2022/03/10 10:09:57;;;;;;;2.40;0.82;;;16.90;63.80;;;;;;5081564;28;20039;-80
2022/03/10 10:12:27;;;;;;;1.52;0.40;;;17.00;64.00;;;;;;5088743;28;20232;-78
2022/03/10 10:14:54;;;;;;;2.85;0.40;;;17.00;64.00;;;;;;5070852;28;20538;-78
2022/03/10 10:17:31;;;;;;;1.38;0.47;;;17.10;64.00;;;;;;5088013;28;20044;-78
2022/03/10 10:20:00;;;;;;;2.15;0.40;;;17.30;64.20;;;;;;5067800;28;20085;-78
2022/03/10 10:22:27;;;;;;;2.00;0.47;;;17.30;63.90;;;;;;5068532;28;20086;-77
2022/03/10 10:24:59;;;;;;;1.23;1.02;;;17.40;63.90;;;;;;5068295;28;20021;-77
2022/03/10 10:27:27;;;;;;;0.80;0.40;;;17.50;63.90;;;;;;5050013;28;20515;-77
2022/03/10 10:29:59;;;;;;;2.37;0.83;;;17.50;63.80;;;;;;5034345;28;20032;-80
2022/03/10 10:32:25;;;;;;;1.40;0.50;;;17.60;63.80;;;;;;5068300;28;20043;-80
2022/03/10 10:35:13;;;;;;;1.88;0.60;;;17.70;63.80;;;;;;5068329;28;20021;-80
2022/03/10 10:37:42;;;;;;;1.75;0.65;;;17.90;63.80;;;;;;5051922;28;20041;-81
2022/03/10 10:40:10;;;;;;;0.50;0.40;;;18.00;63.70;;;;;;5088120;28;20386;-81
2022/03/10 10:42:38;;;;;;;2.30;0.60;;;18.20;63.50;;;;;;5059064;28;20452;-79
2022/03/10 10:45:33;;;;;;;1.50;0.30;;;18.40;63.30;;;;;;5088085;28;20127;-79
2022/03/10 10:48:02;;;;;;;1.13;0.52;;;18.60;62.90;;;;;;5087684;28;20044;-79
2022/03/10 10:50:30;;;;;;;2.28;0.80;;;18.80;62.80;;;;;;5088552;28;20024;-90
2022/03/10 10:52:56;;;;;;;2.00;0.50;;;19.00;62.50;;;;;;5070241;28;20442;-82
2022/03/10 10:55:31;;;;;;;3.28;0.40;;;19.20;62.40;;;;;;5087839;28;20030;-81
2022/03/10 10:58:04;;;;;;;0.68;0.30;;;19.40;62.20;;;;;;5090938;28;20031;-80
2022/03/10 11:00:49;;;;;;;1.27;0.70;;;19.50;61.90;;;;;;5108684;28;20034;-78
2022/03/10 11:03:19;;;;;;;1.02;0.45;;;19.70;61.70;;;;;;5108173;28;20027;-79
2022/03/10 11:05:47;;;;;;;0.85;0.40;;;19.80;61.50;;;;;;5089782;28;20390;-78
2022/03/10 11:08:12;;;;;;;1.40;0.50;;;19.90;61.40;;;;;;5083758;28;20588;-78
2022/03/10 11:10:39;;;;;;;2.85;0.52;;;20.00;61.70;;;;;;5069624;28;20104;-77
2022/03/10 11:13:05;;;;;;;1.20;0.45;;;20.20;61.20;;;;;;5069756;28;20027;-85
2022/03/10 11:15:31;;;;;;;5.93;1.52;;;20.30;60.80;;;;;;5053526;28;20023;-80
2022/03/10 11:17:59;;;;;;;3.33;0.88;;;20.30;60.10;;;;;;5087493;28;20039;-79
2022/03/10 11:20:27;;;;;;;4.07;0.98;;;20.10;58.80;;;;;;5069537;28;20028;-81
2022/03/10 11:22:59;;;;;;;4.15;0.90;;;19.90;58.20;;;;;;5088228;28;20026;-84
2022/03/10 11:25:48;;;;;;;5.00;0.90;;;19.70;57.70;;;;;;5088425;28;20035;-85
2022/03/10 11:28:21;;;;;;;5.28;1.17;;;19.60;57.60;;;;;;5088240;28;20028;-76
2022/03/10 11:30:56;;;;;;;4.28;1.38;;;19.60;57.80;;;;;;5088003;28;20058;-78
2022/03/10 11:33:30;;;;;;;6.57;0.77;;;19.60;57.80;;;;;;5088549;28;20035;-80
2022/03/10 11:35:56;;;;;;;3.90;0.93;;;19.60;57.00;;;;;;5088481;28;20095;-90
2022/03/10 11:38:49;;;;;;;2.55;0.60;;;19.40;56.40;;;;;;5097412;28;20047;-90
2022/03/10 11:41:15;;;;;;;3.45;0.90;;;19.20;55.60;;;;;;5090684;28;20160;-79
2022/03/10 11:44:01;;;;;;;4.18;1.30;;;19.00;55.50;;;;;;5107550;28;20047;-81
2022/03/10 11:46:30;;;;;;;2.25;0.80;;;18.90;55.10;;;;;;5100237;28;20036;-82
2022/03/10 11:49:08;;;;;;;2.47;0.88;;;18.90;55.60;;;;;;5060900;28;20047;-87
2022/03/10 11:51:53;;;;;;;3.83;0.80;;;18.90;55.50;;;;;;5067487;28;20043;-87
2022/03/10 11:54:25;;;;;;;3.97;1.13;;;19.10;55.80;;;;;;5067101;28;20039;-78
2022/03/10 11:56:56;;;;;;;4.67;1.23;;;19.10;55.80;;;;;;5071837;28;20515;-82
2022/03/10 11:59:27;;;;;;;2.35;0.60;;;19.10;55.70;;;;;;5087354;28;20555;-83
2022/03/10 12:01:58;;;;;;;3.00;0.70;;;19.20;55.70;;;;;;5086085;28;20028;-85
2022/03/10 12:04:35;;;;;;;4.05;0.70;;;19.30;55.70;;;;;;5086140;28;20032;-81
2022/03/10 12:07:03;;;;;;;2.90;0.75;;;19.50;55.70;;;;;;5086603;28;20123;-82
2022/03/10 12:09:30;;;;;;;6.32;0.90;;;19.60;55.90;;;;;;5087320;28;20401;-86
2022/03/10 12:12:16;;;;;;;1.52;0.57;;;19.70;55.70;;;;;;5087294;28;20153;-80
2022/03/10 12:14:44;;;;;;;4.82;1.48;;;19.80;55.40;;;;;;5083996;28;20124;-78
2022/03/10 12:17:49;;;;;;;2.78;0.82;;;19.90;55.70;;;;;;5076376;28;20495;-78
2022/03/10 12:20:18;;;;;;;4.28;1.10;;;20.00;55.40;;;;;;5066325;28;20063;-78
2022/03/10 12:23:03;;;;;;;2.83;0.70;;;20.10;55.80;;;;;;5047975;28;20029;-78
2022/03/10 12:25:30;;;;;;;4.55;1.17;;;20.20;55.60;;;;;;5048522;28;20052;-81
2022/03/10 12:27:57;;;;;;;4.70;1.05;;;20.30;55.80;;;;;;5069858;28;20454;-78
2022/03/10 12:30:25;;;;;;;2.80;0.85;;;20.40;55.80;;;;;;5070739;28;20034;-77
2022/03/10 12:32:53;;;;;;;3.33;0.88;;;20.50;55.80;;;;;;5070833;28;20040;-78
2022/03/10 12:35:22;;;;;;;1.50;0.50;;;20.50;55.60;;;;;;5071735;28;20028;-78
2022/03/10 12:37:49;;;;;;;2.45;0.50;;;20.60;55.60;;;;;;5070572;28;20072;-79
2022/03/10 12:40:31;;;;;;;3.17;0.70;;;20.70;55.70;;;;;;5070825;28;20043;-80
2022/03/10 12:43:08;;;;;;;2.17;0.70;;;20.70;55.50;;;;;;5072925;28;20498;-78
2022/03/10 12:45:46;;;;;;;1.67;0.70;;;20.70;55.40;;;;;;5073938;28;20039;-81
2022/03/10 12:48:25;;;;;;;4.57;1.52;;;20.70;55.40;;;;;;5091690;28;20074;-80
2022/03/10 12:50:51;;;;;;;4.22;0.70;;;20.70;55.50;;;;;;5091171;28;20111;-81
2022/03/10 12:53:21;;;;;;;1.50;0.60;;;20.70;55.60;;;;;;5090662;28;20119;-78
2022/03/10 12:55:55;;;;;;;2.00;0.47;;;20.70;55.60;;;;;;5072206;28;20027;-77